Time;durP1;ratioP1;P1;durP2;ratioP2;P2;SDS_P1;SDS_P2;PMS_P1;PMS_P2;Temp;Humidity;BMP_temperature;BMP_pressure;BME280_temperature;BME280_humidity;BME280_pressure;Samples;Min_cycle;Max_cycle;Signal;HPM_P1;HPM_P2
2023/04/23 00:01:18;;;;;;;12.18;8.88;;;13.80;92.90;;;;;;5004926;28;20053;-73
2023/04/23 00:03:44;;;;;;;12.75;8.77;;;13.80;92.90;;;;;;4997350;28;20037;-73
2023/04/23 00:06:10;;;;;;;9.95;8.35;;;13.80;93.00;;;;;;5004277;28;20052;-73
2023/04/23 00:08:40;;;;;;;10.82;8.13;;;13.80;93.20;;;;;;5006573;28;20435;-72
2023/04/23 00:11:06;;;;;;;9.55;7.78;;;13.70;93.40;;;;;;5008164;28;20340;-72
2023/04/23 00:13:32;;;;;;;11.45;8.30;;;13.70;93.50;;;;;;5004326;28;20022;-72
2023/04/23 00:15:58;;;;;;;12.27;8.35;;;13.60;93.70;;;;;;5006300;28;20121;-73
2023/04/23 00:18:24;;;;;;;13.25;9.10;;;13.60;93.70;;;;;;5001719;28;20417;-72
2023/04/23 00:20:49;;;;;;;11.43;9.23;;;13.60;93.60;;;;;;5014339;28;20061;-75
2023/04/23 00:23:15;;;;;;;12.35;9.10;;;13.60;93.70;;;;;;5002752;28;20044;-73
2023/04/23 00:25:40;;;;;;;10.15;8.88;;;13.60;93.80;;;;;;5006926;28;20027;-72
2023/04/23 00:28:06;;;;;;;11.55;9.00;;;13.60;93.80;;;;;;5003328;28;20118;-73
2023/04/23 00:30:32;;;;;;;11.40;9.10;;;13.60;93.80;;;;;;5003823;28;20030;-72
2023/04/23 00:32:58;;;;;;;13.20;9.93;;;13.60;93.90;;;;;;4997802;28;20116;-72
2023/04/23 00:35:23;;;;;;;11.93;9.70;;;13.60;93.90;;;;;;5010889;28;20128;-72
2023/04/23 00:37:49;;;;;;;13.77;9.38;;;13.60;93.80;;;;;;5006741;28;20498;-73
2023/04/23 00:40:14;;;;;;;11.90;9.15;;;13.50;93.90;;;;;;5003801;28;20042;-73
2023/04/23 00:42:40;;;;;;;14.43;10.15;;;13.50;94.00;;;;;;5003127;28;20107;-73
2023/04/23 00:45:07;;;;;;;14.15;9.23;;;13.50;93.90;;;;;;5004617;28;20447;-73
2023/04/23 00:47:33;;;;;;;13.50;9.00;;;13.50;93.90;;;;;;4999891;28;20054;-72
2023/04/23 00:49:59;;;;;;;13.38;8.85;;;13.50;94.00;;;;;;4997496;28;20075;-73
2023/04/23 00:52:25;;;;;;;12.23;9.68;;;13.40;94.10;;;;;;4995074;28;20026;-72
2023/04/23 00:54:51;;;;;;;13.05;9.70;;;13.50;94.20;;;;;;5004532;28;20159;-73
2023/04/23 00:57:16;;;;;;;13.57;9.90;;;13.40;94.30;;;;;;5003484;28;20047;-72
2023/04/23 00:59:43;;;;;;;12.50;9.27;;;13.40;94.40;;;;;;5001332;28;20093;-72
2023/04/23 01:02:09;;;;;;;13.68;10.15;;;13.40;94.40;;;;;;5003566;28;20134;-72
2023/04/23 01:04:36;;;;;;;18.05;11.88;;;13.40;94.40;;;;;;4999455;28;20040;-74
2023/04/23 01:07:02;;;;;;;12.65;10.30;;;13.50;94.30;;;;;;4998788;28;20381;-72
2023/04/23 01:09:27;;;;;;;14.43;10.63;;;13.50;94.30;;;;;;5003321;28;20424;-72
2023/04/23 01:11:53;;;;;;;14.30;11.90;;;13.50;94.40;;;;;;5002850;28;20029;-72
2023/04/23 01:14:19;;;;;;;16.40;12.20;;;13.50;94.40;;;;;;5003512;28;20102;-75
2023/04/23 01:16:45;;;;;;;16.67;11.95;;;13.50;94.40;;;;;;4998152;28;20058;-73
2023/04/23 01:19:11;;;;;;;16.33;12.73;;;13.50;94.50;;;;;;4997105;28;20056;-72
2023/04/23 01:21:40;;;;;;;16.35;12.65;;;13.50;94.30;;;;;;4999266;28;20430;-72
2023/04/23 01:24:07;;;;;;;16.95;12.68;;;13.50;94.20;;;;;;5001045;28;20045;-72
2023/04/23 01:26:33;;;;;;;15.77;12.52;;;13.50;94.30;;;;;;5003792;28;20022;-73
2023/04/23 01:29:00;;;;;;;15.82;13.05;;;13.50;94.30;;;;;;5002909;28;20104;-72
2023/04/23 01:31:27;;;;;;;16.95;13.30;;;13.50;94.30;;;;;;5002312;28;20026;-74
2023/04/23 01:33:54;;;;;;;18.42;13.77;;;13.50;94.30;;;;;;4993753;28;20026;-73
2023/04/23 01:36:23;;;;;;;17.58;13.48;;;13.50;94.30;;;;;;5003115;28;20173;-73
2023/04/23 01:38:49;;;;;;;17.25;14.13;;;13.50;94.30;;;;;;4999347;28;20116;-73
2023/04/23 01:41:14;;;;;;;21.75;14.20;;;13.50;94.40;;;;;;5007263;28;20145;-72
2023/04/23 01:43:43;;;;;;;17.15;13.48;;;13.40;94.80;;;;;;5001673;28;20140;-73
2023/04/23 01:46:09;;;;;;;19.20;14.68;;;13.30;94.90;;;;;;5003286;28;20482;-73
2023/04/23 01:48:35;;;;;;;17.08;13.55;;;13.30;94.80;;;;;;5001829;28;20017;-72
2023/04/23 01:51:01;;;;;;;23.95;18.88;;;13.10;95.20;;;;;;5000301;28;20034;-75
2023/04/23 01:53:26;;;;;;;27.67;21.92;;;12.80;95.10;;;;;;5011356;28;20315;-72
2023/04/23 01:55:54;;;;;;;30.52;24.85;;;12.30;95.80;;;;;;5010750;28;20046;-72
2023/04/23 01:58:19;;;;;;;32.58;26.10;;;12.10;96.40;;;;;;5012404;28;20033;-72
2023/04/23 02:00:45;;;;;;;35.88;26.25;;;12.10;96.40;;;;;;5005509;28;20052;-72
2023/04/23 02:03:11;;;;;;;38.70;29.10;;;12.00;96.50;;;;;;5009558;28;20080;-72
2023/04/23 02:05:39;;;;;;;36.78;27.15;;;11.90;96.70;;;;;;5008048;28;20029;-72
2023/04/23 02:08:04;;;;;;;36.47;28.00;;;11.80;96.90;;;;;;5009752;28;20040;-73
2023/04/23 02:10:30;;;;;;;37.33;28.23;;;11.70;96.80;;;;;;5007741;28;20038;-73
2023/04/23 02:12:57;;;;;;;34.75;25.35;;;11.60;96.50;;;;;;5009362;28;20136;-72
2023/04/23 02:15:23;;;;;;;30.45;24.63;;;11.50;96.60;;;;;;5008515;28;20096;-72
2023/04/23 02:17:52;;;;;;;32.15;23.95;;;11.40;96.10;;;;;;5000742;28;20030;-72
2023/04/23 02:20:18;;;;;;;31.48;24.88;;;11.40;95.80;;;;;;5009529;28;20057;-72
2023/04/23 02:22:45;;;;;;;31.25;24.73;;;11.40;96.00;;;;;;5002629;28;20046;-73
2023/04/23 02:25:11;;;;;;;34.92;25.58;;;11.30;95.90;;;;;;5010497;28;20032;-72
2023/04/23 02:27:36;;;;;;;34.40;25.50;;;11.30;96.10;;;;;;5008334;28;20030;-72
2023/04/23 02:30:03;;;;;;;35.05;26.20;;;11.40;96.20;;;;;;5009770;28;20097;-73
2023/04/23 02:32:28;;;;;;;33.47;25.58;;;11.30;96.20;;;;;;5000964;28;20393;-72
2023/04/23 02:34:54;;;;;;;38.38;29.00;;;11.20;96.40;;;;;;5004609;28;20187;-72
2023/04/23 02:37:20;;;;;;;41.30;29.60;;;11.20;96.60;;;;;;5007573;28;20076;-73
2023/04/23 02:39:45;;;;;;;40.45;29.70;;;11.10;96.40;;;;;;5007493;28;20376;-72
2023/04/23 02:42:12;;;;;;;41.35;30.20;;;11.10;96.40;;;;;;5007687;28;20042;-72
2023/04/23 02:44:37;;;;;;;39.60;29.15;;;11.10;96.50;;;;;;5007668;28;20029;-72
2023/04/23 02:47:03;;;;;;;42.35;30.60;;;11.10;96.30;;;;;;5004053;28;20511;-74
2023/04/23 02:49:28;;;;;;;40.92;29.92;;;11.00;96.30;;;;;;5004803;28;20362;-72
2023/04/23 02:51:54;;;;;;;39.47;28.45;;;10.90;95.90;;;;;;5000825;28;20072;-72
2023/04/23 02:54:19;;;;;;;41.72;29.45;;;10.80;95.80;;;;;;5008362;28;20034;-73
2023/04/23 02:56:45;;;;;;;41.20;29.88;;;10.90;96.10;;;;;;5000516;28;20076;-72
2023/04/23 02:59:11;;;;;;;44.53;30.88;;;10.80;95.80;;;;;;5006553;28;20443;-75
2023/04/23 03:01:36;;;;;;;45.08;29.92;;;10.80;95.80;;;;;;4996689;28;20933;-74
2023/04/23 03:04:02;;;;;;;45.17;31.45;;;10.70;95.60;;;;;;5001237;28;20045;-76
2023/04/23 03:06:28;;;;;;;44.28;32.25;;;10.70;95.80;;;;;;5019188;28;20454;-74
2023/04/23 03:08:54;;;;;;;45.55;32.25;;;10.80;96.00;;;;;;5016880;28;20108;-72
2023/04/23 03:11:21;;;;;;;49.50;35.00;;;10.70;95.80;;;;;;5006361;28;20494;-72
2023/04/23 03:13:47;;;;;;;49.78;34.17;;;10.70;96.00;;;;;;5005872;28;20086;-76
2023/04/23 03:16:13;;;;;;;49.00;32.88;;;10.60;95.80;;;;;;5019361;28;20045;-73
2023/04/23 03:18:39;;;;;;;45.85;31.92;;;10.70;96.00;;;;;;5002030;28;20449;-74
2023/04/23 03:21:04;;;;;;;45.35;33.35;;;10.60;95.60;;;;;;5018183;28;20600;-72
2023/04/23 03:23:30;;;;;;;44.72;31.55;;;10.50;95.40;;;;;;5009915;28;20026;-73
2023/04/23 03:25:55;;;;;;;40.97;29.67;;;10.40;95.40;;;;;;5010154;28;20070;-72
2023/04/23 03:28:21;;;;;;;44.38;31.05;;;10.30;95.10;;;;;;5005258;28;20046;-73
2023/04/23 03:30:46;;;;;;;43.35;30.98;;;10.30;95.10;;;;;;5006864;28;20438;-72
2023/04/23 03:33:12;;;;;;;43.95;32.22;;;10.30;95.30;;;;;;5003874;28;20026;-72
2023/04/23 03:35:37;;;;;;;48.78;31.15;;;10.30;95.40;;;;;;5007718;28;20037;-73
2023/04/23 03:38:03;;;;;;;46.47;32.70;;;10.30;95.30;;;;;;5000916;28;20177;-72
2023/04/23 03:40:28;;;;;;;48.28;32.53;;;10.30;95.60;;;;;;5004605;28;20045;-74
2023/04/23 03:42:54;;;;;;;50.55;35.53;;;10.30;95.60;;;;;;5017149;28;20057;-73
2023/04/23 03:45:20;;;;;;;47.70;34.42;;;10.30;95.70;;;;;;4996729;28;20430;-73
2023/04/23 03:47:45;;;;;;;52.10;35.08;;;10.20;95.70;;;;;;4999770;28;20035;-75
2023/04/23 03:50:14;;;;;;;46.92;32.00;;;10.30;96.00;;;;;;4996145;28;20033;-72
2023/04/23 03:52:39;;;;;;;41.80;29.45;;;10.10;95.40;;;;;;5000423;28;20110;-73
2023/04/23 03:55:06;;;;;;;39.15;28.15;;;10.10;94.90;;;;;;5008727;28;20384;-72
2023/04/23 03:57:32;;;;;;;37.95;26.52;;;10.10;94.90;;;;;;4993206;28;20416;-72
2023/04/23 03:59:57;;;;;;;35.40;25.35;;;10.10;94.80;;;;;;5006039;28;20052;-72
2023/04/23 04:02:23;;;;;;;34.85;24.85;;;10.10;94.80;;;;;;4998413;28;20445;-73
2023/04/23 04:04:50;;;;;;;34.33;23.67;;;10.00;94.70;;;;;;4997593;28;20447;-72
2023/04/23 04:07:16;;;;;;;32.03;22.33;;;10.00;94.90;;;;;;5007877;28;20417;-73
2023/04/23 04:09:41;;;;;;;29.88;20.85;;;10.00;94.80;;;;;;5005371;28;20112;-73
2023/04/23 04:12:07;;;;;;;34.22;23.05;;;9.90;94.90;;;;;;5006375;28;20026;-72
2023/04/23 04:14:32;;;;;;;31.70;22.20;;;9.90;95.20;;;;;;4999098;28;20040;-72
2023/04/23 04:16:58;;;;;;;29.98;21.95;;;9.80;95.30;;;;;;5004849;28;20052;-72
2023/04/23 04:19:24;;;;;;;30.17;22.35;;;9.90;95.40;;;;;;5001968;28;20076;-72
2023/04/23 04:21:52;;;;;;;35.88;22.38;;;9.90;95.30;;;;;;5003610;28;20036;-73
2023/04/23 04:24:18;;;;;;;31.25;21.98;;;9.80;95.00;;;;;;5005340;28;20045;-72
2023/04/23 04:26:44;;;;;;;33.20;21.50;;;9.80;95.20;;;;;;4998563;28;20383;-75
2023/04/23 04:29:10;;;;;;;31.00;21.65;;;9.80;95.30;;;;;;5002691;28;20048;-81
2023/04/23 04:31:36;;;;;;;32.03;21.83;;;9.80;95.50;;;;;;4996463;28;20097;-82
2023/04/23 04:34:02;;;;;;;31.55;22.20;;;9.80;95.40;;;;;;5005085;28;20026;-81
2023/04/23 04:36:28;;;;;;;30.45;21.88;;;9.80;95.40;;;;;;5001880;28;20125;-81
2023/04/23 04:38:54;;;;;;;29.45;21.77;;;9.70;95.40;;;;;;5000667;28;20041;-81
2023/04/23 04:41:21;;;;;;;32.05;21.20;;;9.70;95.30;;;;;;4991299;28;20080;-79
2023/04/23 04:43:47;;;;;;;32.38;21.50;;;9.60;95.50;;;;;;5005974;28;20087;-80
2023/04/23 04:46:14;;;;;;;30.80;21.27;;;9.70;95.60;;;;;;5003265;28;20026;-80
2023/04/23 04:48:39;;;;;;;32.25;20.85;;;9.80;95.70;;;;;;4999715;28;20411;-80
2023/04/23 04:51:05;;;;;;;29.85;20.67;;;9.80;95.60;;;;;;5004529;28;20017;-80
2023/04/23 04:53:31;;;;;;;28.95;19.77;;;9.80;95.30;;;;;;5006175;28;20014;-80
2023/04/23 04:55:56;;;;;;;23.92;17.70;;;9.70;95.00;;;;;;5002327;28;20053;-80
2023/04/23 04:58:21;;;;;;;26.15;17.83;;;9.70;95.00;;;;;;5005816;28;20107;-82
2023/04/23 05:00:50;;;;;;;23.15;15.30;;;9.60;94.70;;;;;;4999055;28;20168;-79
2023/04/23 05:03:17;;;;;;;21.35;16.02;;;9.60;94.50;;;;;;4999920;28;20105;-79
2023/04/23 05:05:44;;;;;;;20.42;13.95;;;9.60;94.70;;;;;;5002896;28;20045;-81
2023/04/23 05:08:09;;;;;;;18.92;11.45;;;9.60;94.00;;;;;;5000492;28;20034;-80
2023/04/23 05:10:35;;;;;;;16.75;11.07;;;9.50;93.30;;;;;;5001208;28;20132;-79
2023/04/23 05:13:01;;;;;;;14.80;10.63;;;9.50;93.40;;;;;;4997344;28;20113;-79
2023/04/23 05:15:26;;;;;;;15.55;10.23;;;9.50;93.30;;;;;;5006646;28;20111;-79
2023/04/23 05:17:52;;;;;;;15.38;9.98;;;9.50;92.80;;;;;;5000981;28;20334;-82
2023/04/23 05:20:19;;;;;;;15.40;9.20;;;9.60;92.70;;;;;;5002378;28;20021;-82
2023/04/23 05:22:45;;;;;;;16.02;9.52;;;9.50;92.20;;;;;;5004061;28;20114;-79
2023/04/23 05:25:11;;;;;;;14.05;9.90;;;9.60;92.50;;;;;;5005655;28;20444;-80
2023/04/23 05:27:37;;;;;;;13.63;9.45;;;9.60;92.40;;;;;;5005742;28;20152;-79
2023/04/23 05:30:05;;;;;;;18.00;10.45;;;9.60;92.20;;;;;;5010111;28;20117;-79
2023/04/23 05:32:31;;;;;;;16.13;9.70;;;9.60;92.60;;;;;;5008070;28;20029;-75
2023/04/23 05:34:56;;;;;;;13.48;10.10;;;9.60;92.20;;;;;;5007371;28;20029;-75
2023/04/23 05:37:22;;;;;;;14.23;9.23;;;9.50;92.20;;;;;;5009067;28;20168;-75
2023/04/23 05:39:47;;;;;;;13.52;8.80;;;9.50;92.10;;;;;;5003956;28;20080;-75
2023/04/23 05:42:13;;;;;;;14.25;8.20;;;9.50;91.30;;;;;;5009641;28;20472;-76
2023/04/23 05:44:40;;;;;;;12.73;8.70;;;9.50;91.50;;;;;;5008399;28;20077;-75
2023/04/23 05:47:06;;;;;;;12.60;9.02;;;9.60;91.40;;;;;;5003666;28;20030;-76
2023/04/23 05:49:31;;;;;;;16.88;9.25;;;9.70;91.30;;;;;;4993015;28;20106;-76
2023/04/23 05:51:58;;;;;;;13.50;9.57;;;9.80;91.20;;;;;;5005980;28;20105;-76
2023/04/23 05:54:23;;;;;;;13.68;9.20;;;9.90;91.20;;;;;;5007732;28;20133;-76
2023/04/23 05:56:49;;;;;;;13.80;9.82;;;9.80;90.60;;;;;;4996713;28;20476;-76
2023/04/23 05:59:15;;;;;;;15.60;10.23;;;10.00;91.10;;;;;;5003531;28;20046;-76
2023/04/23 06:01:40;;;;;;;13.88;8.90;;;9.90;90.10;;;;;;4998464;28;20100;-76
2023/04/23 06:04:06;;;;;;;16.70;9.75;;;9.80;89.60;;;;;;5004907;28;20105;-75
2023/04/23 06:06:32;;;;;;;12.30;9.05;;;9.90;90.00;;;;;;5007581;28;20335;-76
2023/04/23 06:08:57;;;;;;;12.20;8.60;;;9.90;90.40;;;;;;5004645;28;20133;-76
2023/04/23 06:11:23;;;;;;;14.13;8.98;;;10.00;90.30;;;;;;5007875;28;20448;-76
2023/04/23 06:13:48;;;;;;;13.30;8.68;;;10.00;90.40;;;;;;5002755;28;20033;-76
2023/04/23 06:16:14;;;;;;;13.48;9.05;;;10.00;90.10;;;;;;5008007;28;20120;-76
2023/04/23 06:18:39;;;;;;;14.13;8.25;;;10.10;89.20;;;;;;5003398;28;20091;-76
2023/04/23 06:21:05;;;;;;;11.45;8.30;;;10.10;88.90;;;;;;5005740;28;20430;-75
2023/04/23 06:23:31;;;;;;;12.48;8.40;;;10.10;89.70;;;;;;5007418;28;20055;-75
2023/04/23 06:25:57;;;;;;;10.77;7.97;;;10.10;89.20;;;;;;5006471;28;20033;-76
2023/04/23 06:28:22;;;;;;;12.93;8.48;;;10.20;89.10;;;;;;5005303;28;20390;-76
2023/04/23 06:30:48;;;;;;;11.48;7.63;;;10.30;89.10;;;;;;5004240;28;20116;-76
2023/04/23 06:33:13;;;;;;;13.68;7.22;;;10.30;89.00;;;;;;5003420;28;20041;-76
2023/04/23 06:35:39;;;;;;;10.32;6.55;;;10.30;88.40;;;;;;5005717;28;20168;-76
2023/04/23 06:38:05;;;;;;;9.40;6.30;;;10.20;87.40;;;;;;5004183;28;20087;-76
2023/04/23 06:40:31;;;;;;;10.65;6.13;;;10.10;87.80;;;;;;5008438;28;20077;-76
2023/04/23 06:42:56;;;;;;;10.23;5.90;;;10.20;87.80;;;;;;5004957;28;20091;-76
2023/04/23 06:45:22;;;;;;;8.73;5.50;;;10.30;87.20;;;;;;5005703;28;20046;-76
2023/04/23 06:47:48;;;;;;;8.80;6.20;;;10.20;86.60;;;;;;5001351;28;20034;-76
2023/04/23 06:50:14;;;;;;;8.57;6.25;;;10.30;87.10;;;;;;5015558;28;20422;-74
2023/04/23 06:52:39;;;;;;;9.00;6.20;;;10.40;87.50;;;;;;5009286;28;20037;-76
2023/04/23 06:55:06;;;;;;;13.27;6.57;;;10.40;87.10;;;;;;5010365;28;20021;-76
2023/04/23 06:57:32;;;;;;;8.57;6.07;;;10.50;87.70;;;;;;5000591;28;20241;-76
2023/04/23 06:59:57;;;;;;;12.50;6.38;;;10.30;86.80;;;;;;5008762;28;20373;-76
2023/04/23 07:02:23;;;;;;;9.80;6.38;;;10.40;87.30;;;;;;4999298;28;20030;-76
2023/04/23 07:04:48;;;;;;;9.88;6.30;;;10.50;87.10;;;;;;5004125;28;20038;-76
2023/04/23 07:07:14;;;;;;;10.20;7.25;;;10.60;87.10;;;;;;5001608;28;20025;-76
2023/04/23 07:09:39;;;;;;;13.15;7.22;;;10.60;88.20;;;;;;4994415;28;20092;-76
2023/04/23 07:12:05;;;;;;;12.27;7.93;;;10.60;87.50;;;;;;4997694;28;20059;-76
2023/04/23 07:14:31;;;;;;;10.93;7.88;;;10.60;87.70;;;;;;5004780;28;20033;-76
2023/04/23 07:16:57;;;;;;;11.98;7.68;;;10.80;87.50;;;;;;5003915;28;20030;-76
2023/04/23 07:19:23;;;;;;;11.88;7.95;;;10.70;87.70;;;;;;5003927;28;20088;-76
2023/04/23 07:21:48;;;;;;;12.95;8.25;;;11.00;87.70;;;;;;5002463;28;20038;-76
2023/04/23 07:24:14;;;;;;;12.30;8.48;;;11.00;87.10;;;;;;5005266;28;20050;-76
2023/04/23 07:26:39;;;;;;;15.50;9.68;;;11.00;86.80;;;;;;5006772;28;20014;-77
2023/04/23 07:29:06;;;;;;;21.00;11.55;;;11.10;87.00;;;;;;5001943;28;21145;-77
2023/04/23 07:31:32;;;;;;;16.65;11.48;;;11.20;87.20;;;;;;5005083;28;20034;-76
2023/04/23 07:33:58;;;;;;;17.67;11.95;;;11.30;86.30;;;;;;4994061;28;20096;-77
2023/04/23 07:36:23;;;;;;;18.77;11.45;;;11.60;86.40;;;;;;5001212;28;20049;-76
2023/04/23 07:38:49;;;;;;;19.77;13.25;;;11.60;86.00;;;;;;4991741;28;20137;-76
2023/04/23 07:41:15;;;;;;;16.23;12.27;;;11.60;86.00;;;;;;5002456;28;20058;-78
2023/04/23 07:43:41;;;;;;;15.65;11.00;;;11.40;85.90;;;;;;5003355;28;20125;-77
2023/04/23 07:46:07;;;;;;;16.55;11.13;;;11.70;85.50;;;;;;5003287;28;20093;-77
2023/04/23 07:48:33;;;;;;;14.02;10.35;;;11.70;85.30;;;;;;5003084;28;20028;-76
2023/04/23 07:51:00;;;;;;;15.82;11.93;;;11.70;85.20;;;;;;5004009;28;20110;-77
2023/04/23 07:53:27;;;;;;;17.00;11.57;;;11.80;85.10;;;;;;5002823;28;20099;-77
2023/04/23 07:55:56;;;;;;;14.98;11.63;;;11.90;84.60;;;;;;5005537;28;20029;-77
2023/04/23 07:58:23;;;;;;;14.65;11.73;;;12.00;84.30;;;;;;4997142;28;20092;-77
2023/04/23 08:00:48;;;;;;;18.55;12.50;;;12.10;84.60;;;;;;4999627;28;20054;-74
2023/04/23 08:03:14;;;;;;;20.02;13.02;;;12.10;84.80;;;;;;4995962;28;20045;-76
2023/04/23 08:05:40;;;;;;;19.23;13.45;;;12.00;83.60;;;;;;5006801;28;20029;-76
2023/04/23 08:08:07;;;;;;;21.08;15.13;;;12.00;84.50;;;;;;5006752;28;20026;-77
2023/04/23 08:10:33;;;;;;;21.48;15.77;;;12.20;83.60;;;;;;5005607;28;20403;-77
2023/04/23 08:12:58;;;;;;;18.92;15.27;;;12.30;83.10;;;;;;5001164;28;20520;-76
2023/04/23 08:15:24;;;;;;;21.10;15.93;;;12.30;83.20;;;;;;4998188;28;20122;-75
2023/04/23 08:17:49;;;;;;;20.92;15.68;;;12.50;82.70;;;;;;4990377;28;20030;-76
2023/04/23 08:20:15;;;;;;;21.27;15.93;;;12.60;82.80;;;;;;5003702;28;20100;-76
2023/04/23 08:22:40;;;;;;;22.13;16.77;;;12.70;81.80;;;;;;5003642;28;20026;-75
2023/04/23 08:25:06;;;;;;;21.75;16.30;;;13.00;80.90;;;;;;4996451;28;20037;-78
2023/04/23 08:27:32;;;;;;;21.33;17.55;;;13.60;81.00;;;;;;5003815;28;20120;-77
2023/04/23 08:29:57;;;;;;;25.50;17.70;;;14.00;79.30;;;;;;4997311;28;20030;-78
2023/04/23 08:32:23;;;;;;;25.05;17.63;;;13.60;77.70;;;;;;4998587;28;20387;-78
2023/04/23 08:34:48;;;;;;;21.83;17.48;;;13.70;78.10;;;;;;5005361;28;20030;-79
2023/04/23 08:37:14;;;;;;;22.00;17.85;;;14.10;77.70;;;;;;5004956;28;20442;-78
2023/04/23 08:39:40;;;;;;;22.60;15.98;;;14.80;77.50;;;;;;4999498;28;20026;-78
2023/04/23 08:42:35;;;;;;;20.90;15.93;;;14.50;74.30;;;;;;5003461;28;20109;-75
2023/04/23 08:45:02;;;;;;;20.25;14.02;;;14.80;72.50;;;;;;4997839;28;20030;-75
2023/04/23 08:47:30;;;;;;;17.67;13.63;;;14.10;71.70;;;;;;4996166;28;20021;-76
2023/04/23 08:49:58;;;;;;;18.92;14.18;;;13.80;73.30;;;;;;4995050;28;20038;-77
2023/04/23 08:52:25;;;;;;;19.20;14.55;;;13.90;74.90;;;;;;5007931;28;20394;-77
2023/04/23 08:54:58;;;;;;;16.73;13.25;;;14.40;76.00;;;;;;5001702;28;20108;-77
2023/04/23 08:57:25;;;;;;;19.15;13.60;;;14.20;75.10;;;;;;5001159;28;20134;-76
2023/04/23 08:59:51;;;;;;;19.45;13.15;;;14.10;74.00;;;;;;4999327;28;20042;-77
2023/04/23 09:02:16;;;;;;;16.08;13.00;;;14.60;73.80;;;;;;5001630;28;20057;-76
2023/04/23 09:04:44;;;;;;;16.33;12.05;;;15.10;73.20;;;;;;4994195;28;20057;-77
2023/04/23 09:07:12;;;;;;;14.27;11.55;;;14.60;72.30;;;;;;5002040;28;20315;-77
2023/04/23 09:09:39;;;;;;;15.95;11.85;;;14.40;71.80;;;;;;5002820;28;20120;-76
2023/04/23 09:12:06;;;;;;;14.68;11.48;;;14.20;72.30;;;;;;5003630;28;20026;-77
2023/04/23 09:14:32;;;;;;;17.90;12.05;;;14.30;72.10;;;;;;5005776;28;20025;-75
2023/04/23 09:16:57;;;;;;;15.30;11.40;;;14.80;74.00;;;;;;5005162;28;20022;-75
2023/04/23 09:19:26;;;;;;;16.05;11.23;;;15.30;72.60;;;;;;4998227;28;20057;-77
2023/04/23 09:21:52;;;;;;;16.95;11.07;;;15.60;70.40;;;;;;4996004;28;20450;-77
2023/04/23 09:24:20;;;;;;;15.55;10.43;;;15.60;67.90;;;;;;4997127;28;20042;-77
2023/04/23 09:26:48;;;;;;;12.60;9.07;;;15.60;68.80;;;;;;4996329;28;20038;-77
2023/04/23 09:29:19;;;;;;;13.77;9.70;;;15.40;66.50;;;;;;4998762;28;20370;-76
2023/04/23 09:31:46;;;;;;;12.55;9.93;;;15.40;67.50;;;;;;5004951;28;20040;-77
2023/04/23 09:34:18;;;;;;;11.95;8.68;;;15.20;66.80;;;;;;4994049;28;20525;-78
2023/04/23 09:36:44;;;;;;;13.27;8.90;;;15.00;65.70;;;;;;5003670;28;20045;-77
2023/04/23 09:39:14;;;;;;;14.90;9.98;;;15.00;66.70;;;;;;4996235;28;20026;-79
2023/04/23 09:41:40;;;;;;;13.13;9.48;;;15.30;68.10;;;;;;5002843;28;20034;-79
2023/04/23 09:44:07;;;;;;;14.05;10.20;;;15.40;65.60;;;;;;5002055;28;20064;-79
2023/04/23 09:46:37;;;;;;;14.55;10.55;;;15.50;63.50;;;;;;5003385;28;20021;-79
2023/04/23 09:49:06;;;;;;;14.75;11.35;;;15.50;64.70;;;;;;5003507;28;20045;-75
2023/04/23 09:51:34;;;;;;;14.85;10.40;;;16.00;66.10;;;;;;5004198;28;20141;-77
2023/04/23 09:54:02;;;;;;;13.45;9.70;;;16.10;64.40;;;;;;5013720;28;20125;-78
2023/04/23 09:56:30;;;;;;;16.35;10.25;;;16.20;62.40;;;;;;5012241;28;20049;-77
2023/04/23 09:58:55;;;;;;;11.50;8.52;;;16.50;64.90;;;;;;5006515;28;20014;-77
2023/04/23 10:01:28;;;;;;;13.10;9.52;;;16.40;61.70;;;;;;5003729;28;20323;-79
2023/04/23 10:03:55;;;;;;;12.05;8.75;;;16.70;61.70;;;;;;5002087;28;20034;-80
2023/04/23 10:06:28;;;;;;;15.52;9.38;;;16.50;60.70;;;;;;5000861;28;20052;-81
2023/04/23 10:08:55;;;;;;;12.05;9.35;;;16.20;60.90;;;;;;4998609;28;20359;-80
2023/04/23 10:11:23;;;;;;;13.77;8.43;;;16.50;62.70;;;;;;4996775;28;20038;-81
2023/04/23 10:13:50;;;;;;;11.38;8.55;;;16.20;60.30;;;;;;5007939;28;20127;-78
2023/04/23 10:16:19;;;;;;;9.20;7.28;;;16.50;60.80;;;;;;5003390;28;20666;-79
2023/04/23 10:18:46;;;;;;;10.75;7.30;;;16.80;62.30;;;;;;5005279;28;21822;-77
2023/04/23 10:21:15;;;;;;;11.20;8.30;;;16.70;60.20;;;;;;5003167;28;20021;-78
2023/04/23 10:23:43;;;;;;;9.13;6.95;;;17.00;58.90;;;;;;5005316;28;20026;-78
2023/04/23 10:26:09;;;;;;;9.45;7.10;;;16.80;58.90;;;;;;5005511;28;20076;-78
2023/04/23 10:28:35;;;;;;;9.40;7.43;;;17.20;57.60;;;;;;5002092;28;20032;-78
2023/04/23 10:31:04;;;;;;;9.98;6.88;;;17.30;56.60;;;;;;5005501;28;20069;-76
2023/04/23 10:33:30;;;;;;;10.50;6.18;;;17.40;57.10;;;;;;5002598;28;20033;-77
2023/04/23 10:35:56;;;;;;;9.82;6.43;;;17.90;57.90;;;;;;5008283;28;20499;-77
2023/04/23 10:38:22;;;;;;;9.40;7.05;;;17.90;55.10;;;;;;5008809;28;20058;-77
2023/04/23 10:40:50;;;;;;;9.45;6.30;;;17.60;55.70;;;;;;5020171;28;20491;-78
2023/04/23 10:43:17;;;;;;;10.98;6.25;;;17.80;55.00;;;;;;5002585;28;20064;-78
2023/04/23 10:45:43;;;;;;;8.82;6.03;;;17.80;55.40;;;;;;5004774;28;20030;-77
2023/04/23 10:48:08;;;;;;;7.53;6.15;;;18.00;54.80;;;;;;4998053;28;20046;-77
2023/04/23 10:50:35;;;;;;;8.05;6.10;;;18.20;54.70;;;;;;5004412;28;20090;-78
2023/04/23 10:53:01;;;;;;;7.72;5.90;;;18.50;56.90;;;;;;5011696;28;20037;-78
2023/04/23 10:55:30;;;;;;;8.93;5.95;;;18.70;55.60;;;;;;5010131;28;20022;-78
2023/04/23 10:58:00;;;;;;;9.50;5.63;;;18.70;54.70;;;;;;5016172;28;20033;-78
2023/04/23 11:00:27;;;;;;;6.43;4.70;;;18.90;53.30;;;;;;5005535;28;20033;-78
2023/04/23 11:02:54;;;;;;;7.10;4.80;;;18.90;50.50;;;;;;5004137;28;20111;-78
2023/04/23 11:05:22;;;;;;;5.03;4.00;;;18.70;50.10;;;;;;5009635;28;20030;-78
2023/04/23 11:08:05;;;;;;;6.47;4.68;;;18.90;52.00;;;;;;5002316;28;20392;-78
2023/04/23 11:10:32;;;;;;;6.20;4.90;;;19.40;51.60;;;;;;5006327;28;20375;-78
2023/04/23 11:13:27;;;;;;;6.60;4.70;;;19.00;53.00;;;;;;5011478;28;20388;-78
2023/04/23 11:16:22;;;;;;;6.97;4.05;;;19.30;51.30;;;;;;5009276;28;20030;-77
2023/04/23 11:19:10;;;;;;;7.78;4.28;;;19.40;50.00;;;;;;5008088;28;20458;-78
2023/04/23 11:22:00;;;;;;;6.32;4.47;;;19.70;49.40;;;;;;5012571;28;20343;-78
2023/04/23 11:24:30;;;;;;;;;;;19.60;50.80;;;;;;5013608;28;20466;-78
2023/04/23 11:26:56;;;;;;;7.93;4.00;;;19.60;49.00;;;;;;5004694;28;20433;-78
2023/04/23 11:29:23;;;;;;;9.32;4.50;;;19.50;51.40;;;;;;5003037;28;20030;-78
2023/04/23 11:31:49;;;;;;;5.47;3.72;;;19.60;49.50;;;;;;5001368;28;20370;-79
2023/04/23 11:34:16;;;;;;;5.63;4.05;;;20.20;49.30;;;;;;4996538;28;20121;-78
2023/04/23 11:36:42;;;;;;;6.85;4.10;;;19.50;48.70;;;;;;4994423;28;20556;-78
2023/04/23 11:39:09;;;;;;;7.50;3.83;;;19.70;49.20;;;;;;5017071;28;20484;-78
2023/04/23 11:41:35;;;;;;;5.47;3.70;;;20.40;50.40;;;;;;4995887;28;20033;-78
2023/04/23 11:44:00;;;;;;;6.53;4.50;;;20.70;49.00;;;;;;4996370;28;20030;-78
2023/04/23 11:46:26;;;;;;;7.00;4.85;;;20.80;48.10;;;;;;5002091;28;20147;-78
2023/04/23 11:48:52;;;;;;;5.70;4.15;;;20.30;47.90;;;;;;4999947;28;20355;-77
2023/04/23 11:51:22;;;;;;;6.47;4.00;;;20.30;47.70;;;;;;5004222;28;20115;-77
2023/04/23 11:53:48;;;;;;;7.40;4.47;;;20.50;47.20;;;;;;5003184;28;20116;-77
2023/04/23 11:56:16;;;;;;;5.38;3.97;;;20.80;45.90;;;;;;4995592;28;20078;-78
2023/04/23 11:58:42;;;;;;;7.20;4.70;;;20.80;47.60;;;;;;5004888;28;20438;-78
2023/04/23 12:01:11;;;;;;;7.03;4.57;;;20.70;47.70;;;;;;4998635;28;20050;-78
2023/04/23 12:03:37;;;;;;;7.93;4.55;;;20.40;47.70;;;;;;5001039;28;20120;-78
2023/04/23 12:06:02;;;;;;;6.45;4.28;;;21.30;47.10;;;;;;5015108;28;20088;-78
2023/04/23 12:08:33;;;;;;;7.15;4.25;;;21.80;46.80;;;;;;5003972;28;20466;-77
2023/04/23 12:11:01;;;;;;;7.07;4.70;;;21.80;45.40;;;;;;4996775;28;20470;-78
2023/04/23 12:13:32;;;;;;;7.88;4.43;;;21.10;44.90;;;;;;5001481;28;20109;-77
2023/04/23 12:16:02;;;;;;;6.53;4.40;;;21.40;44.80;;;;;;5003081;28;20027;-78
2023/04/23 12:18:34;;;;;;;5.80;3.63;;;21.80;45.80;;;;;;5000394;28;20101;-77
2023/04/23 12:21:11;;;;;;;7.13;3.78;;;21.80;45.60;;;;;;5002299;28;20029;-77
2023/04/23 12:23:38;;;;;;;6.40;4.13;;;20.70;47.00;;;;;;4998729;28;20475;-78
2023/04/23 12:26:13;;;;;;;10.63;4.57;;;20.00;47.60;;;;;;5003172;28;20437;-76
2023/04/23 12:28:46;;;;;;;6.40;4.15;;;20.00;48.80;;;;;;5002218;28;20034;-77
2023/04/23 12:31:19;;;;;;;5.30;3.25;;;21.40;47.20;;;;;;5001587;28;20022;-78
2023/04/23 12:33:44;;;;;;;4.90;2.60;;;21.60;46.00;;;;;;4997118;28;20022;-78